createdAt,value
2022-08-17T00:06:53.976Z,100.00
2022-08-17T00:16:56.796Z,100.00
2022-08-17T00:26:59.526Z,100.00
2022-08-17T00:37:00.909Z,100.00
2022-08-17T00:47:02.306Z,100.00
2022-08-17T00:57:03.692Z,100.00
2022-08-17T01:07:05.019Z,100.00
2022-08-17T01:17:06.361Z,100.00
2022-08-17T01:27:10.534Z,100.00
2022-08-17T01:37:12.144Z,100.00
2022-08-17T01:47:13.487Z,100.00
2022-08-17T01:57:14.825Z,100.00
2022-08-17T02:07:17.226Z,100.00
2022-08-17T02:17:18.959Z,100.00
2022-08-17T02:27:20.288Z,100.00
2022-08-17T02:37:21.635Z,100.00
2022-08-17T02:47:22.952Z,100.00
2022-08-17T02:57:24.324Z,100.00
2022-08-17T03:07:25.631Z,100.00
2022-08-17T03:17:26.967Z,100.00
2022-08-17T03:27:28.300Z,100.00
2022-08-17T03:37:29.630Z,100.00
2022-08-17T03:47:49.577Z,100.00
2022-08-17T03:57:50.896Z,100.00
2022-08-17T04:07:54.312Z,100.00
2022-08-17T04:17:55.760Z,100.00
2022-08-17T04:27:57.333Z,100.00
2022-08-17T04:37:58.724Z,100.00
2022-08-17T04:48:00.115Z,100.00
2022-08-17T04:58:01.465Z,100.00
2022-08-17T05:08:02.797Z,100.00
2022-08-17T05:18:04.153Z,100.00
2022-08-17T05:28:05.427Z,100.00
2022-08-17T05:38:08.218Z,100.00
2022-08-17T05:48:10.334Z,100.00
2022-08-17T05:58:11.694Z,100.00
2022-08-17T06:08:13.036Z,100.00
2022-08-17T06:18:18.930Z,98.81
2022-08-17T06:28:20.531Z,100.00
2022-08-17T06:38:37.767Z,100.00
2022-08-17T06:48:40.096Z,100.00
2022-08-17T06:58:41.455Z,100.00
2022-08-17T07:08:43.648Z,100.00
2022-08-17T07:18:44.944Z,100.00
2022-08-17T07:28:46.284Z,100.00
2022-08-17T07:38:48.548Z,100.00
2022-08-17T07:48:49.924Z,100.00
2022-08-17T07:58:51.250Z,100.00
2022-08-17T08:08:52.620Z,100.00
2022-08-17T08:18:56.723Z,100.00
2022-08-17T08:29:00.413Z,100.00
2022-08-17T08:39:01.851Z,100.00
2022-08-17T08:49:09.983Z,100.00
2022-08-17T08:59:13.893Z,100.00
2022-08-17T09:09:15.273Z,100.00
2022-08-17T09:19:16.533Z,100.00
2022-08-17T09:29:17.877Z,100.00
2022-08-17T09:39:19.162Z,100.00
2022-08-17T09:49:25.019Z,100.00
2022-08-17T09:59:27.547Z,100.00
2022-08-17T10:09:38.439Z,100.00
2022-08-17T10:19:39.856Z,100.00
2022-08-17T10:29:48.910Z,100.00
2022-08-17T10:39:52.537Z,97.48
2022-08-17T10:49:56.010Z,95.55
2022-08-17T10:59:57.360Z,98.41
2022-08-17T11:09:58.735Z,99.77
2022-08-17T11:20:00.099Z,95.55
2022-08-17T11:30:02.494Z,90.74
2022-08-17T11:40:05.596Z,81.96
2022-08-17T11:50:28.040Z,80.99
2022-08-17T12:00:30.172Z,83.00
2022-08-17T12:10:34.309Z,79.88
2022-08-17T12:20:35.675Z,81.36
2022-08-17T12:30:37.025Z,88.00
2022-08-17T12:40:38.365Z,79.48
2022-08-17T12:50:39.708Z,76.73
2022-08-17T13:00:41.302Z,61.71
2022-08-17T13:10:48.881Z,59.96
2022-08-17T13:20:54.104Z,56.90
2022-08-17T13:30:55.453Z,57.82
2022-08-17T13:40:56.793Z,54.61
2022-08-17T13:50:58.143Z,53.70
2022-08-17T14:01:03.421Z,51.33
2022-08-17T14:11:13.961Z,48.63
2022-08-17T14:21:15.395Z,48.87
2022-08-17T14:31:16.747Z,47.94
2022-08-17T14:41:22.060Z,47.56
2022-08-17T14:51:23.685Z,48.61
2022-08-17T15:01:25.086Z,48.10
2022-08-17T15:11:26.440Z,45.37
2022-08-17T15:21:27.773Z,43.19
2022-08-17T15:31:31.646Z,43.19
2022-08-17T15:41:33.852Z,42.19
2022-08-17T15:51:35.264Z,43.34
2022-08-17T16:02:21.575Z,41.70
2022-08-17T16:22:43.873Z,44.09
2022-08-17T16:32:45.267Z,45.26
2022-08-17T16:42:48.437Z,45.43
2022-08-17T16:52:50.067Z,46.88
2022-08-17T17:03:06.464Z,47.62
2022-08-17T17:13:21.399Z,50.22
2022-08-17T17:23:22.650Z,51.38
2022-08-17T17:33:24.068Z,53.99
2022-08-17T17:43:38.946Z,53.34
2022-08-17T17:53:43.523Z,55.50
2022-08-17T18:03:45.055Z,57.23
2022-08-17T18:13:46.471Z,58.82
2022-08-17T18:23:50.908Z,62.41
2022-08-17T18:33:52.457Z,62.33
2022-08-17T18:43:54.065Z,64.89
2022-08-17T18:53:55.451Z,66.42
2022-08-17T19:03:58.862Z,68.41
2022-08-17T19:14:00.983Z,69.84
2022-08-17T19:24:02.284Z,71.73
2022-08-17T19:34:03.657Z,75.33
2022-08-17T19:44:06.968Z,74.63
2022-08-17T19:54:08.295Z,77.41
2022-08-17T20:04:09.673Z,70.63
2022-08-17T20:14:11.020Z,72.85
2022-08-17T20:24:12.351Z,78.15
2022-08-17T20:34:13.689Z,80.73
2022-08-17T20:44:14.976Z,82.90
2022-08-17T20:54:16.380Z,83.20
2022-08-17T21:04:17.697Z,85.91
2022-08-17T21:14:19.026Z,86.98
2022-08-17T21:24:21.483Z,87.67
2022-08-17T21:34:22.839Z,89.88
2022-08-17T21:44:30.566Z,89.30
2022-08-17T21:54:34.038Z,86.34
2022-08-17T22:04:35.352Z,84.52
2022-08-17T22:14:52.667Z,83.09
2022-08-17T22:24:57.521Z,84.21
2022-08-17T22:34:59.092Z,85.23
2022-08-17T22:45:00.344Z,84.86
2022-08-17T22:55:20.290Z,85.39
2022-08-17T23:05:21.708Z,94.89
2022-08-17T23:15:24.386Z,100.00
2022-08-17T23:25:25.877Z,97.29
2022-08-17T23:35:39.249Z,99.47
2022-08-17T23:45:41.992Z,100.00
2022-08-17T23:55:43.410Z,100.00
